createdAt,value
2022-08-25T06:00:37.968Z,6.85
2022-08-25T06:04:30.580Z,6.10
2022-08-25T06:08:23.685Z,5.60
2022-08-25T06:12:17.842Z,5.18
2022-08-25T06:16:10.382Z,6.40
2022-08-25T06:20:04.679Z,5.30
2022-08-25T06:27:52.379Z,5.38
2022-08-25T06:31:45.048Z,5.07
2022-08-25T06:35:38.222Z,6.28
2022-08-25T06:39:30.725Z,6.20
2022-08-25T06:43:23.624Z,6.00
2022-08-25T06:47:16.925Z,6.18
2022-08-25T06:51:14.127Z,6.30
2022-08-25T06:55:07.004Z,5.68
2022-08-25T06:59:01.828Z,6.20
2022-08-25T07:02:55.453Z,6.10
2022-08-25T07:06:48.194Z,6.22
2022-08-25T07:10:40.650Z,5.95
2022-08-25T07:14:33.100Z,5.90
2022-08-25T07:18:27.077Z,6.28
2022-08-25T07:22:19.680Z,5.75
2022-08-25T07:26:37.263Z,7.75
2022-08-25T07:30:31.317Z,5.10
2022-08-25T07:34:44.093Z,4.43
2022-08-25T07:38:37.449Z,5.40
2022-08-25T07:42:30.218Z,5.05
2022-08-25T07:46:22.672Z,5.03
2022-08-25T07:50:15.345Z,4.93
2022-08-25T07:54:08.053Z,5.63
2022-08-25T07:58:01.585Z,5.00
2022-08-25T08:01:54.341Z,4.90
2022-08-25T08:05:47.760Z,5.15
2022-08-25T08:09:41.790Z,5.07
2022-08-25T08:13:39.335Z,5.13
2022-08-25T08:17:34.105Z,5.05
2022-08-25T08:21:33.102Z,4.90
2022-08-25T08:25:27.403Z,5.00
2022-08-25T08:29:22.577Z,3.88
2022-08-25T08:33:15.229Z,5.10
2022-08-25T08:37:10.433Z,5.70
2022-08-25T08:41:54.232Z,5.15
2022-08-25T08:45:53.909Z,4.88
2022-08-25T08:50:07.974Z,5.47
2022-08-25T08:54:15.182Z,4.43
2022-08-25T08:58:13.120Z,4.25
2022-08-25T09:02:14.549Z,4.78
2022-08-25T09:06:37.981Z,4.13
2022-08-25T09:10:48.107Z,3.85
2022-08-25T09:15:17.502Z,4.10
2022-08-25T09:19:21.441Z,3.90
2022-08-25T09:23:49.167Z,4.15
2022-08-25T09:28:06.495Z,4.47
2022-08-25T09:32:00.621Z,4.63
2022-08-25T09:35:57.474Z,4.55
2022-08-25T09:39:50.102Z,4.75
2022-08-25T09:43:52.339Z,3.72
2022-08-25T09:47:45.772Z,4.63
2022-08-25T09:51:43.680Z,4.15
2022-08-25T09:55:36.593Z,4.43
2022-08-25T09:59:36.047Z,4.50
2022-08-25T10:03:29.636Z,4.35
2022-08-25T10:07:27.708Z,4.60
2022-08-25T10:11:43.078Z,3.40
2022-08-25T10:15:38.233Z,3.47
2022-08-25T10:19:30.791Z,3.10
2022-08-25T10:23:28.093Z,3.17
2022-08-25T10:27:28.714Z,3.25
2022-08-25T10:31:34.766Z,3.13
2022-08-25T10:35:34.423Z,3.10
2022-08-25T10:39:40.766Z,3.15
2022-08-25T10:43:46.103Z,3.70
2022-08-25T10:47:47.264Z,3.03
2022-08-25T10:51:54.974Z,3.20
2022-08-25T10:56:12.285Z,3.20
2022-08-25T11:00:11.293Z,3.13
2022-08-25T11:04:25.390Z,3.33
2022-08-25T11:08:34.637Z,2.80
2022-08-25T11:12:39.258Z,3.88
2022-08-25T11:16:46.160Z,3.03
2022-08-25T11:20:56.192Z,2.80
2022-08-25T11:25:18.659Z,3.13
2022-08-25T11:29:21.932Z,2.95
2022-08-25T11:33:19.569Z,3.40
2022-08-25T11:37:23.240Z,3.00
2022-08-25T11:41:40.776Z,3.10
2022-08-25T11:49:58.419Z,3.08
2022-08-25T11:58:37.359Z,2.72
2022-08-25T12:02:42.714Z,2.72
2022-08-25T12:06:36.903Z,2.83
2022-08-25T12:10:52.521Z,2.67
2022-08-25T12:14:46.857Z,2.65
2022-08-25T12:31:45.715Z,2.80
2022-08-25T12:36:00.235Z,2.63
2022-08-25T12:40:04.710Z,2.80
2022-08-25T12:44:30.912Z,2.50
2022-08-25T12:48:27.769Z,2.63
2022-08-25T12:52:27.264Z,2.75
2022-08-25T12:56:39.412Z,2.90
2022-08-25T13:00:52.484Z,2.53
2022-08-25T13:05:16.088Z,3.10
2022-08-25T13:09:46.624Z,3.30
2022-08-25T13:13:39.177Z,2.90
2022-08-25T13:17:35.257Z,3.15
2022-08-25T13:25:32.159Z,2.78
2022-08-25T13:29:28.228Z,2.90
2022-08-25T13:33:23.996Z,3.10
2022-08-25T13:37:30.325Z,2.88
2022-08-25T13:41:29.467Z,2.78
2022-08-25T13:45:26.457Z,2.83
2022-08-25T13:49:28.351Z,2.90
2022-08-25T13:53:30.547Z,3.05
2022-08-25T13:57:30.275Z,3.10
2022-08-25T14:01:48.337Z,3.20
2022-08-25T14:05:42.939Z,2.90
2022-08-25T14:09:49.930Z,2.75
2022-08-25T14:13:45.549Z,3.40
2022-08-25T14:17:41.344Z,3.67
2022-08-25T14:21:34.771Z,3.08
2022-08-25T14:25:28.861Z,2.88
2022-08-25T14:29:24.048Z,3.72
2022-08-25T14:33:19.804Z,3.40
2022-08-25T14:37:18.819Z,3.63
2022-08-25T14:41:12.459Z,2.97
2022-08-25T14:45:06.426Z,3.75
2022-08-25T14:49:02.737Z,3.20
2022-08-25T14:52:55.623Z,2.90
2022-08-25T14:56:52.645Z,3.50
2022-08-25T15:00:46.709Z,3.60
2022-08-25T15:04:40.438Z,3.70
2022-08-25T15:09:00.585Z,3.83
2022-08-25T15:12:54.106Z,3.50
2022-08-25T15:16:51.065Z,3.05
2022-08-25T15:20:43.893Z,3.10
2022-08-25T15:24:38.970Z,3.38
2022-08-25T15:28:32.104Z,4.13
2022-08-25T15:32:25.060Z,3.03
2022-08-25T15:36:24.583Z,3.75
2022-08-25T15:40:17.547Z,3.40
2022-08-25T15:44:12.509Z,3.30
2022-08-25T15:48:06.916Z,3.38
2022-08-25T15:52:02.545Z,3.53
2022-08-25T15:55:57.175Z,3.42
2022-08-25T15:59:50.163Z,3.63
2022-08-25T16:03:42.718Z,3.55
2022-08-25T16:07:35.265Z,3.30
2022-08-25T16:11:31.392Z,2.97
2022-08-25T16:15:28.667Z,3.40
2022-08-25T16:19:21.796Z,3.10
2022-08-25T16:23:16.697Z,3.17
2022-08-25T16:27:11.770Z,3.25
2022-08-25T16:31:05.316Z,3.77
2022-08-25T16:35:01.260Z,3.50
2022-08-25T16:38:54.562Z,3.38
2022-08-25T16:42:47.015Z,3.50
2022-08-25T16:46:40.779Z,3.60
2022-08-25T16:50:34.600Z,3.95
2022-08-25T16:54:45.838Z,4.15
2022-08-25T16:58:38.316Z,3.67
2022-08-25T17:02:32.624Z,3.60
2022-08-25T17:06:27.392Z,4.25
2022-08-25T17:10:20.007Z,3.70
2022-08-25T17:14:17.902Z,3.53
2022-08-25T17:18:11.400Z,4.00
2022-08-25T17:22:07.288Z,3.78
2022-08-25T17:26:00.192Z,3.80
2022-08-25T17:29:54.793Z,4.22
2022-08-25T17:33:48.444Z,3.70
2022-08-25T17:37:41.809Z,3.80
2022-08-25T17:41:34.529Z,3.50
2022-08-25T17:45:30.458Z,4.07
2022-08-25T17:49:23.907Z,3.50
2022-08-25T17:53:17.503Z,3.67
2022-08-25T17:57:10.998Z,4.05
2022-08-25T18:01:07.551Z,3.70
2022-08-25T18:05:02.907Z,4.10
2022-08-25T18:08:59.994Z,4.05
2022-08-25T18:12:53.008Z,3.80
2022-08-25T18:16:46.224Z,4.35
2022-08-25T18:20:39.166Z,3.83
2022-08-25T18:24:34.755Z,4.20
2022-08-25T18:28:28.859Z,4.10
2022-08-25T18:32:21.997Z,3.90
2022-08-25T18:36:20.657Z,4.10
2022-08-25T18:40:23.417Z,3.95
2022-08-25T18:44:16.112Z,3.88
2022-08-25T18:48:09.708Z,4.07
2022-08-25T18:52:02.153Z,4.13
2022-08-25T18:55:55.769Z,3.58
2022-08-25T18:59:50.458Z,3.63
2022-08-25T19:03:44.433Z,3.70
2022-08-25T19:07:36.939Z,4.10
2022-08-25T19:11:33.156Z,4.38
2022-08-25T19:15:27.132Z,3.42
2022-08-25T19:19:21.066Z,3.70
2022-08-25T19:23:13.665Z,4.35
2022-08-25T19:27:07.275Z,4.00
2022-08-25T19:31:07.386Z,4.10
2022-08-25T19:34:59.926Z,4.15
2022-08-25T19:38:53.594Z,4.88
2022-08-25T19:42:47.221Z,4.65
2022-08-25T19:46:43.077Z,5.45
2022-08-25T19:50:36.504Z,4.13
2022-08-25T19:54:33.967Z,4.30
2022-08-25T19:58:27.389Z,4.05
2022-08-25T20:02:29.546Z,4.45
2022-08-25T20:06:22.670Z,3.80
2022-08-25T20:10:16.151Z,4.10
2022-08-25T20:14:11.661Z,4.35
2022-08-25T20:18:04.548Z,4.35
2022-08-25T20:21:57.441Z,4.20
2022-08-25T20:25:50.645Z,5.25
2022-08-25T20:29:44.680Z,4.35
2022-08-25T20:33:37.300Z,4.35
2022-08-25T20:37:30.473Z,4.60
2022-08-25T20:41:23.003Z,4.57
2022-08-25T20:45:17.256Z,4.88
2022-08-25T20:49:09.948Z,4.65
2022-08-25T20:53:02.438Z,4.95
2022-08-25T20:56:56.547Z,4.68
2022-08-25T21:00:49.153Z,5.10
2022-08-25T21:04:42.332Z,4.63
2022-08-25T21:08:47.036Z,5.93
2022-08-25T21:12:40.574Z,5.10
2022-08-25T21:16:38.943Z,4.57
2022-08-25T21:20:31.627Z,5.13
2022-08-25T21:24:24.209Z,4.88
2022-08-25T21:28:16.785Z,4.78
2022-08-25T21:32:09.413Z,5.20
2022-08-25T21:36:02.797Z,6.93
2022-08-25T21:39:56.136Z,5.40
2022-08-25T21:43:50.253Z,5.63
2022-08-25T21:47:43.131Z,3.95
2022-08-25T21:51:41.321Z,4.40
2022-08-25T21:55:44.592Z,5.35
2022-08-25T21:59:40.661Z,4.50
2022-08-25T22:03:34.254Z,4.82
2022-08-25T22:07:29.642Z,4.32
2022-08-25T22:11:28.463Z,4.82
2022-08-25T22:15:26.519Z,5.30
2022-08-25T22:19:19.288Z,5.40
2022-08-25T22:23:20.062Z,5.50
2022-08-25T22:27:15.680Z,4.88
2022-08-25T22:31:10.218Z,5.25
2022-08-25T22:35:03.468Z,6.03
2022-08-25T22:38:57.703Z,5.13
2022-08-25T22:42:50.885Z,5.28
2022-08-25T22:46:43.416Z,5.57
2022-08-25T22:50:38.307Z,5.47
2022-08-25T22:54:30.723Z,4.50
2022-08-25T22:58:23.834Z,5.32
2022-08-25T23:02:17.656Z,5.50
2022-08-25T23:06:22.146Z,5.38
2022-08-25T23:10:17.654Z,5.03
2022-08-25T23:14:11.300Z,5.13
2022-08-25T23:18:03.814Z,5.43
2022-08-25T23:22:12.529Z,5.00
2022-08-25T23:26:05.264Z,5.50
2022-08-25T23:29:57.665Z,4.80
2022-08-25T23:33:50.920Z,5.03
2022-08-25T23:37:43.771Z,5.57
2022-08-25T23:41:36.939Z,5.60
2022-08-25T23:45:29.876Z,5.70
2022-08-25T23:49:24.139Z,5.13
2022-08-25T23:53:20.773Z,5.30
2022-08-25T23:57:13.508Z,5.35
